Time;durP1;ratioP1;P1;durP2;ratioP2;P2;SDS_P1;SDS_P2;PMS_P1;PMS_P2;Temp;Humidity;BMP_temperature;BMP_pressure;BME280_temperature;BME280_humidity;BME280_pressure;Samples;Min_cycle;Max_cycle;Signal;HPM_P1;HPM_P2
2022/01/27 00:00:08;;;;;;;56.40;26.27;;;;;;;;;;5115366;28;20843;-71
2022/01/27 00:05:24;;;;;;;62.00;26.63;;;;;;;;;;5114069;28;20441;-71
2022/01/27 00:08:07;;;;;;;58.30;25.73;;;;;;;;;;5115030;28;20828;-71
2022/01/27 00:10:49;;;;;;;57.87;23.87;;;;;;;;;;5115016;28;20521;-71
2022/01/27 00:13:17;;;;;;;71.10;25.50;;;;;;;;;;5115113;28;20489;-72
2022/01/27 00:15:46;;;;;;;54.63;25.77;;;;;;;;;;5114574;28;20496;-71
2022/01/27 00:18:17;;;;;;;57.80;24.60;;;;;;;;;;5115025;28;20454;-71
2022/01/27 00:20:45;;;;;;;62.20;25.07;;;;;;;;;;5114822;28;20938;-71
2022/01/27 00:23:12;;;;;;;60.77;26.87;;;;;;;;;;5114776;28;20449;-71
2022/01/27 00:25:39;;;;;;;64.27;25.20;;;;;;;;;;5114362;28;20477;-71
2022/01/27 00:28:07;;;;;;;61.40;26.87;;;;;;;;;;5114819;28;20452;-71
2022/01/27 00:30:35;;;;;;;74.10;26.63;;;;;;;;;;5114360;28;20492;-71
2022/01/27 00:33:03;;;;;;;77.53;28.30;;;;;;;;;;5114238;28;20970;-72
2022/01/27 00:35:32;;;;;;;72.80;27.33;;;;;;;;;;5114437;28;20551;-72
2022/01/27 00:37:59;;;;;;;53.40;23.57;;;;;;;;;;5114665;28;20453;-71
2022/01/27 00:40:26;;;;;;;62.73;25.80;;;;;;;;;;5114824;28;20449;-71
2022/01/27 00:42:53;;;;;;;69.17;25.87;;;;;;;;;;5114516;28;20469;-71
2022/01/27 00:45:22;;;;;;;71.77;25.60;;;;;;;;;;5114040;28;20445;-71
2022/01/27 00:47:50;;;;;;;68.63;28.20;;;;;;;;;;5114085;28;20915;-71
2022/01/27 00:50:18;;;;;;;70.23;25.30;;;;;;;;;;5114180;28;20489;-71
2022/01/27 00:52:50;;;;;;;70.57;25.80;;;;;;;;;;5114185;28;20457;-72
2022/01/27 00:55:18;;;;;;;63.03;24.50;;;;;;;;;;5114423;28;20857;-71
2022/01/27 00:58:01;;;;;;;67.27;23.93;;;;;;;;;;5114174;28;20454;-71
2022/01/27 01:00:33;;;;;;;71.37;28.27;;;;;;;;;;5114036;28;20456;-71
2022/01/27 01:03:04;;;;;;;57.47;26.37;;;;;;;;;;5114413;28;20454;-71
2022/01/27 01:05:49;;;;;;;61.87;28.03;;;;;;;;;;5113273;28;20481;-71
2022/01/27 01:09:07;;;;;;;77.47;26.63;;;;;;;;;;5113841;28;20500;-71
2022/01/27 01:11:57;;;;;;;61.10;26.07;;;;;;;;;;5113727;28;20522;-71
2022/01/27 01:17:27;;;;;;;75.63;25.70;;;;;;;;;;5113846;28;20441;-71
2022/01/27 01:20:18;;;;;;;80.00;28.00;;;;;;;;;;5113728;28;20452;-71
2022/01/27 01:31:13;;;;;;;72.43;29.73;;;;;;;;;;5113619;28;20610;-71
2022/01/27 01:33:42;;;;;;;80.80;27.00;;;;;;;;;;5113380;28;20453;-73
2022/01/27 01:36:15;;;;;;;64.67;27.87;;;;;;;;;;5113589;28;20478;-71
2022/01/27 01:38:43;;;;;;;77.63;28.77;;;;;;;;;;5113743;28;20449;-71
2022/01/27 01:41:12;;;;;;;64.43;27.70;;;;;;;;;;5113630;28;20437;-71
2022/01/27 01:43:39;;;;;;;66.13;26.50;;;;;;;;;;5112987;28;20454;-72
2022/01/27 01:46:06;;;;;;;64.93;25.77;;;;;;;;;;5113488;28;20474;-72
2022/01/27 01:48:33;;;;;;;73.70;27.57;;;;;;;;;;5113345;28;20465;-71
2022/01/27 01:51:02;;;;;;;67.57;25.73;;;;;;;;;;5113409;28;20489;-71
2022/01/27 01:53:30;;;;;;;77.90;29.67;;;;;;;;;;5113254;28;20479;-71
2022/01/27 01:55:57;;;;;;;88.00;27.30;;;;;;;;;;5113137;28;20977;-71
2022/01/27 01:58:25;;;;;;;74.10;31.77;;;;;;;;;;5113253;28;20473;-71
2022/01/27 02:00:52;;;;;;;72.67;25.73;;;;;;;;;;5113281;28;20438;-71
2022/01/27 02:03:19;;;;;;;67.60;27.27;;;;;;;;;;5113266;28;20452;-71
2022/01/27 02:05:52;;;;;;;86.17;30.97;;;;;;;;;;5112397;28;20840;-71
2022/01/27 02:08:46;;;;;;;70.30;26.87;;;;;;;;;;5113248;28;20446;-71
2022/01/27 02:19:30;;;;;;;74.60;28.87;;;;;;;;;;5113169;28;20974;-71
2022/01/27 02:22:00;;;;;;;69.37;25.33;;;;;;;;;;5113092;28;20446;-71
2022/01/27 02:24:29;;;;;;;55.83;25.53;;;;;;;;;;5112881;28;20460;-71
2022/01/27 02:26:56;;;;;;;75.27;26.70;;;;;;;;;;5112984;28;20473;-71
2022/01/27 02:29:24;;;;;;;73.40;25.37;;;;;;;;;;5112935;28;20446;-71
2022/01/27 02:31:51;;;;;;;65.50;25.53;;;;;;;;;;5112919;28;20449;-71
2022/01/27 02:34:19;;;;;;;58.60;26.50;;;;;;;;;;5112832;28;20456;-71
2022/01/27 02:36:46;;;;;;;53.37;22.80;;;;;;;;;;5112867;28;20481;-71
2022/01/27 02:39:15;;;;;;;51.73;23.73;;;;;;;;;;5112885;28;20450;-71
2022/01/27 02:41:44;;;;;;;60.00;26.17;;;;;;;;;;5112792;28;20446;-72
2022/01/27 02:44:11;;;;;;;68.20;27.57;;;;;;;;;;5112695;28;20457;-72
2022/01/27 02:46:43;;;;;;;64.23;28.73;;;;;;;;;;5112681;28;20477;-72
2022/01/27 02:49:10;;;;;;;93.10;39.27;;;;;;;;;;5113027;28;20450;-71
2022/01/27 02:51:37;;;;;;;62.30;24.57;;;;;;;;;;5112747;28;20496;-71
2022/01/27 02:54:04;;;;;;;49.83;23.10;;;;;;;;;;5112682;28;20521;-71
2022/01/27 02:56:33;;;;;;;53.30;21.50;;;;;;;;;;5116590;28;20476;-71
2022/01/27 02:59:01;;;;;;;57.67;23.20;;;;;;;;;;5116536;28;20460;-72
2022/01/27 03:01:28;;;;;;;59.07;22.37;;;;;;;;;;5116434;28;20445;-71
2022/01/27 03:03:55;;;;;;;69.73;24.47;;;;;;;;;;5116336;28;20450;-71
2022/01/27 03:06:22;;;;;;;60.77;26.00;;;;;;;;;;5115963;28;20470;-71
2022/01/27 03:08:49;;;;;;;62.03;24.90;;;;;;;;;;5116243;28;20456;-71
2022/01/27 03:11:18;;;;;;;61.33;25.40;;;;;;;;;;5116107;28;20489;-71
2022/01/27 03:13:47;;;;;;;56.67;24.90;;;;;;;;;;5116013;28;20982;-72
2022/01/27 03:16:14;;;;;;;60.43;26.97;;;;;;;;;;5116164;28;20480;-71
2022/01/27 03:18:41;;;;;;;64.97;24.67;;;;;;;;;;5116319;28;20949;-71
2022/01/27 03:21:09;;;;;;;61.33;26.07;;;;;;;;;;5116095;28;20477;-71
2022/01/27 03:23:36;;;;;;;66.00;24.50;;;;;;;;;;5115727;28;20992;-72
2022/01/27 03:26:04;;;;;;;60.43;26.33;;;;;;;;;;5115894;28;20975;-71
2022/01/27 03:28:31;;;;;;;54.30;24.63;;;;;;;;;;5116028;28;20473;-71
2022/01/27 03:30:59;;;;;;;54.60;22.67;;;;;;;;;;5115834;28;20485;-71
2022/01/27 03:33:26;;;;;;;52.17;22.73;;;;;;;;;;5115703;28;20458;-72
2022/01/27 03:35:53;;;;;;;45.80;20.33;;;;;;;;;;5115722;28;20474;-71
2022/01/27 03:38:21;;;;;;;59.60;24.70;;;;;;;;;;5115690;27;20461;-71
2022/01/27 03:40:48;;;;;;;52.37;25.30;;;;;;;;;;5115528;28;20449;-71
2022/01/27 03:43:15;;;;;;;53.27;23.17;;;;;;;;;;5115718;28;20459;-71
2022/01/27 03:45:42;;;;;;;47.10;21.60;;;;;;;;;;5115124;28;20470;-71
2022/01/27 03:48:10;;;;;;;53.27;23.33;;;;;;;;;;5115523;28;20492;-71
2022/01/27 03:50:37;;;;;;;60.43;24.33;;;;;;;;;;5115367;28;20489;-71
2022/01/27 03:53:04;;;;;;;47.43;20.97;;;;;;;;;;5115367;28;20458;-71
2022/01/27 03:55:32;;;;;;;51.90;23.40;;;;;;;;;;5115160;28;20988;-71
2022/01/27 03:57:59;;;;;;;52.83;24.40;;;;;;;;;;5115469;27;20456;-71
2022/01/27 04:00:26;;;;;;;55.63;25.30;;;;;;;;;;5115441;28;20449;-71
2022/01/27 04:03:02;;;;;;;53.63;24.90;;;;;;;;;;5115273;28;20973;-71
2022/01/27 04:05:35;;;;;;;52.70;23.57;;;;;;;;;;5114598;28;20686;-71
2022/01/27 04:08:03;;;;;;;63.30;24.10;;;;;;;;;;5115447;28;20884;-71
2022/01/27 04:10:30;;;;;;;63.93;26.40;;;;;;;;;;5114981;28;20486;-71
2022/01/27 04:12:57;;;;;;;60.57;25.47;;;;;;;;;;5115081;28;20446;-71
2022/01/27 04:15:24;;;;;;;56.93;26.03;;;;;;;;;;5114932;28;20465;-71
2022/01/27 04:17:52;;;;;;;47.33;24.67;;;;;;;;;;5114894;28;20943;-71
2022/01/27 04:20:19;;;;;;;61.27;25.20;;;;;;;;;;5114821;28;20449;-71
2022/01/27 04:22:48;;;;;;;60.30;29.40;;;;;;;;;;5114844;28;20460;-71
2022/01/27 04:25:15;;;;;;;69.57;28.90;;;;;;;;;;5114664;28;20821;-71
2022/01/27 04:27:47;;;;;;;70.77;26.87;;;;;;;;;;5114700;28;20460;-71
2022/01/27 04:30:16;;;;;;;55.40;25.77;;;;;;;;;;5114719;28;20505;-71
2022/01/27 04:32:47;;;;;;;50.40;24.17;;;;;;;;;;5114730;28;20942;-71
2022/01/27 04:35:18;;;;;;;61.03;27.83;;;;;;;;;;5114304;28;20450;-71
2022/01/27 04:37:57;;;;;;;67.23;29.70;;;;;;;;;;5114493;28;20457;-71
2022/01/27 04:40:32;;;;;;;56.17;25.00;;;;;;;;;;5114714;28;20445;-71
2022/01/27 04:43:06;;;;;;;61.90;26.90;;;;;;;;;;5114496;28;20465;-71
2022/01/27 04:45:41;;;;;;;50.57;22.10;;;;;;;;;;5114124;28;20572;-71
2022/01/27 04:48:12;;;;;;;73.40;29.17;;;;;;;;;;5114232;28;20472;-71
2022/01/27 04:50:40;;;;;;;74.20;30.93;;;;;;;;;;5114256;28;20997;-71
2022/01/27 04:53:12;;;;;;;61.53;28.43;;;;;;;;;;5114181;28;20519;-71
2022/01/27 04:55:40;;;;;;;60.37;26.63;;;;;;;;;;5113942;28;20970;-71
2022/01/27 04:58:12;;;;;;;59.27;27.17;;;;;;;;;;5114287;28;20458;-71
2022/01/27 05:00:40;;;;;;;67.03;29.00;;;;;;;;;;5114111;28;20454;-71
2022/01/27 05:03:16;;;;;;;70.97;26.57;;;;;;;;;;5114141;28;20454;-71
2022/01/27 05:05:44;;;;;;;71.43;29.47;;;;;;;;;;5113061;28;20473;-71
2022/01/27 05:08:16;;;;;;;66.63;27.83;;;;;;;;;;5113969;28;20453;-71
2022/01/27 05:10:54;;;;;;;71.07;30.23;;;;;;;;;;5113885;28;20517;-71
2022/01/27 05:13:23;;;;;;;77.70;29.53;;;;;;;;;;5113942;28;20446;-71
2022/01/27 05:15:50;;;;;;;64.30;29.90;;;;;;;;;;5113636;28;20470;-71
2022/01/27 05:18:17;;;;;;;66.23;26.73;;;;;;;;;;5114289;28;20445;-71
2022/01/27 05:20:45;;;;;;;62.33;26.40;;;;;;;;;;5113708;28;20445;-71
2022/01/27 05:23:12;;;;;;;82.27;27.90;;;;;;;;;;5113780;28;20453;-71
2022/01/27 05:25:39;;;;;;;69.37;27.00;;;;;;;;;;5113365;28;20990;-71
2022/01/27 05:28:09;;;;;;;67.67;28.97;;;;;;;;;;5113964;28;20449;-71
2022/01/27 05:30:36;;;;;;;78.43;29.73;;;;;;;;;;5113572;28;21001;-71
2022/01/27 05:33:03;;;;;;;67.60;31.73;;;;;;;;;;5113681;28;20449;-71
2022/01/27 05:35:30;;;;;;;70.70;29.97;;;;;;;;;;5113326;28;20466;-71
2022/01/27 05:37:57;;;;;;;74.20;29.23;;;;;;;;;;5113791;28;20934;-71
2022/01/27 05:40:25;;;;;;;70.17;31.33;;;;;;;;;;5113759;28;20446;-71
2022/01/27 05:42:52;;;;;;;76.30;31.10;;;;;;;;;;5113462;28;20446;-71
2022/01/27 05:45:20;;;;;;;92.10;32.40;;;;;;;;;;5113209;28;20450;-71
2022/01/27 05:47:47;;;;;;;69.83;29.40;;;;;;;;;;5113111;28;20473;-71
2022/01/27 05:50:15;;;;;;;78.83;31.40;;;;;;;;;;5113576;28;20453;-71
2022/01/27 05:52:42;;;;;;;78.90;33.90;;;;;;;;;;5113386;28;20557;-71
2022/01/27 05:55:10;;;;;;;87.30;34.37;;;;;;;;;;5113236;28;20454;-71
2022/01/27 05:57:37;;;;;;;74.13;31.73;;;;;;;;;;5113328;28;20568;-71
2022/01/27 06:00:05;;;;;;;78.10;32.50;;;;;;;;;;5113412;28;20456;-71
2022/01/27 06:02:33;;;;;;;69.23;31.53;;;;;;;;;;5113304;28;20445;-71
2022/01/27 06:05:02;;;;;;;81.40;31.20;;;;;;;;;;5112850;28;20527;-71
2022/01/27 06:07:30;;;;;;;70.47;29.80;;;;;;;;;;5113379;28;20494;-71
2022/01/27 06:09:57;;;;;;;88.83;34.73;;;;;;;;;;5113176;28;20458;-71
2022/01/27 06:12:24;;;;;;;93.73;32.20;;;;;;;;;;5113272;28;20489;-71
2022/01/27 06:14:51;;;;;;;89.57;35.17;;;;;;;;;;5112865;28;20441;-71
2022/01/27 06:17:18;;;;;;;70.23;30.80;;;;;;;;;;5113181;28;20465;-71
2022/01/27 06:19:47;;;;;;;77.40;31.97;;;;;;;;;;5113137;28;20457;-71
2022/01/27 06:22:15;;;;;;;77.70;34.10;;;;;;;;;;5113332;28;20496;-71
2022/01/27 06:24:43;;;;;;;75.83;30.27;;;;;;;;;;5112558;28;20449;-71
2022/01/27 06:27:10;;;;;;;80.53;30.13;;;;;;;;;;5113004;28;20475;-71
2022/01/27 06:29:38;;;;;;;75.67;33.40;;;;;;;;;;5113920;28;20976;-71
2022/01/27 06:32:05;;;;;;;85.83;33.70;;;;;;;;;;5116895;28;20480;-71
2022/01/27 06:34:32;;;;;;;84.77;32.97;;;;;;;;;;5116796;28;20450;-71
2022/01/27 06:37:01;;;;;;;73.30;30.60;;;;;;;;;;5117012;28;20835;-71
2022/01/27 06:39:28;;;;;;;92.60;31.77;;;;;;;;;;5116793;28;20492;-71
2022/01/27 06:41:55;;;;;;;91.83;34.00;;;;;;;;;;5116707;27;20452;-71
2022/01/27 06:44:22;;;;;;;87.10;34.43;;;;;;;;;;5116689;28;20445;-71
2022/01/27 06:46:49;;;;;;;78.73;32.20;;;;;;;;;;5116446;28;20849;-71
2022/01/27 06:49:17;;;;;;;77.27;31.93;;;;;;;;;;5116682;28;20457;-70
2022/01/27 06:51:45;;;;;;;83.40;33.80;;;;;;;;;;5116496;28;20852;-70
2022/01/27 06:54:15;;;;;;;77.50;32.20;;;;;;;;;;5116569;28;20847;-70
2022/01/27 06:56:42;;;;;;;89.63;33.30;;;;;;;;;;5116394;28;20473;-71
2022/01/27 06:59:09;;;;;;;78.63;32.90;;;;;;;;;;5116628;28;20445;-70
2022/01/27 07:01:36;;;;;;;80.70;30.73;;;;;;;;;;5116373;28;20454;-70
2022/01/27 07:04:04;;;;;;;84.53;31.43;;;;;;;;;;5116168;28;20461;-70
2022/01/27 07:06:32;;;;;;;85.23;33.73;;;;;;;;;;5115890;28;20461;-70
2022/01/27 07:08:59;;;;;;;73.87;30.70;;;;;;;;;;5116349;28;20960;-70
2022/01/27 07:11:28;;;;;;;76.07;30.17;;;;;;;;;;5116298;28;20854;-70
2022/01/27 07:13:55;;;;;;;75.60;33.50;;;;;;;;;;5116066;28;20461;-70
2022/01/27 07:16:22;;;;;;;73.23;30.80;;;;;;;;;;5116117;28;20457;-70
2022/01/27 07:18:51;;;;;;;76.97;30.10;;;;;;;;;;5116210;28;20472;-70
2022/01/27 07:21:18;;;;;;;77.00;31.57;;;;;;;;;;5116196;28;20450;-70
2022/01/27 07:23:45;;;;;;;67.87;30.90;;;;;;;;;;5115804;27;20456;-70
2022/01/27 07:26:13;;;;;;;66.93;29.40;;;;;;;;;;5115919;28;20471;-70
2022/01/27 07:28:42;;;;;;;77.43;29.30;;;;;;;;;;5115788;28;20450;-70
2022/01/27 07:31:09;;;;;;;74.37;30.80;;;;;;;;;;5115801;28;20833;-70
2022/01/27 07:33:36;;;;;;;63.90;28.17;;;;;;;;;;5115613;28;20445;-71
2022/01/27 07:36:03;;;;;;;61.13;29.33;;;;;;;;;;5115910;28;20478;-70
2022/01/27 07:38:30;;;;;;;61.30;27.83;;;;;;;;;;5115799;28;20450;-71
2022/01/27 07:40:58;;;;;;;58.37;25.50;;;;;;;;;;5115222;28;20457;-70
2022/01/27 07:43:25;;;;;;;57.63;26.00;;;;;;;;;;5115647;28;20461;-70
2022/01/27 07:45:53;;;;;;;67.87;28.43;;;;;;;;;;5115535;28;21002;-70
2022/01/27 07:48:20;;;;;;;57.30;24.57;;;;;;;;;;5115428;28;20478;-71
2022/01/27 07:50:48;;;;;;;61.90;27.20;;;;;;;;;;5115396;28;20462;-70
2022/01/27 07:53:15;;;;;;;67.73;29.33;;;;;;;;;;5115432;28;20485;-70
2022/01/27 07:55:42;;;;;;;71.10;31.53;;;;;;;;;;5115130;28;20987;-70
2022/01/27 07:58:09;;;;;;;58.83;27.70;;;;;;;;;;5115421;28;20844;-70
2022/01/27 08:00:36;;;;;;;73.20;31.57;;;;;;;;;;5115342;28;20523;-70
2022/01/27 08:03:05;;;;;;;65.40;31.13;;;;;;;;;;5115172;28;20442;-70
2022/01/27 08:05:32;;;;;;;56.47;27.50;;;;;;;;;;5114592;28;20470;-70
2022/01/27 08:07:59;;;;;;;66.50;29.63;;;;;;;;;;5115253;28;20468;-70
2022/01/27 08:10:26;;;;;;;53.13;27.17;;;;;;;;;;5115172;28;20482;-70
2022/01/27 08:12:54;;;;;;;56.10;25.13;;;;;;;;;;5114975;28;20489;-70
2022/01/27 08:15:22;;;;;;;67.87;30.93;;;;;;;;;;5114674;28;20450;-71
2022/01/27 08:17:49;;;;;;;62.87;31.20;;;;;;;;;;5115069;28;20449;-70
2022/01/27 08:20:18;;;;;;;63.13;28.67;;;;;;;;;;5114911;28;20449;-70
2022/01/27 08:22:47;;;;;;;46.73;21.13;;;;;;;;;;5114849;28;20488;-71
2022/01/27 08:25:14;;;;;;;45.83;23.73;;;;;;;;;;5114700;28;20528;-70
2022/01/27 08:27:43;;;;;;;43.87;22.17;;;;;;;;;;5114859;28;20445;-70
2022/01/27 08:30:11;;;;;;;44.83;22.90;;;;;;;;;;5114684;28;20442;-71
2022/01/27 08:32:46;;;;;;;51.93;27.53;;;;;;;;;;5114588;28;20485;-71
2022/01/27 08:35:13;;;;;;;42.93;23.77;;;;;;;;;;5114453;28;20453;-71
2022/01/27 08:37:42;;;;;;;42.23;23.27;;;;;;;;;;5114521;28;20823;-71
2022/01/27 08:40:10;;;;;;;40.07;23.17;;;;;;;;;;5114676;28;20452;-71
2022/01/27 08:42:40;;;;;;;43.27;23.40;;;;;;;;;;5114233;28;20830;-71
2022/01/27 08:45:08;;;;;;;39.73;21.83;;;;;;;;;;5114351;28;20533;-71
2022/01/27 08:47:35;;;;;;;37.73;22.40;;;;;;;;;;5114157;28;20480;-71
2022/01/27 08:50:02;;;;;;;39.80;20.80;;;;;;;;;;5114450;28;20457;-71
2022/01/27 08:52:29;;;;;;;44.23;26.67;;;;;;;;;;5113609;28;20474;-72
2022/01/27 08:54:58;;;;;;;37.60;22.07;;;;;;;;;;5113986;28;20945;-71
2022/01/27 08:57:25;;;;;;;35.03;22.17;;;;;;;;;;5114293;28;20477;-71
2022/01/27 08:59:53;;;;;;;36.63;20.23;;;;;;;;;;5114188;28;20463;-71
2022/01/27 09:02:20;;;;;;;32.07;20.17;;;;;;;;;;5114180;28;20453;-71
2022/01/27 09:04:48;;;;;;;36.40;21.97;;;;;;;;;;5113498;28;20458;-71
2022/01/27 09:07:15;;;;;;;33.33;20.07;;;;;;;;;;5114102;28;20481;-71
2022/01/27 09:09:42;;;;;;;41.50;18.77;;;;;;;;;;5113962;28;20449;-71
2022/01/27 09:12:11;;;;;;;44.13;21.13;;;;;;;;;;5113880;28;20493;-71
2022/01/27 09:14:41;;;;;;;37.43;21.53;;;;;;;;;;5113787;28;20449;-71
2022/01/27 09:17:09;;;;;;;37.07;20.73;;;;;;;;;;5113957;28;20883;-71
2022/01/27 09:19:38;;;;;;;32.20;19.63;;;;;;;;;;5113828;28;20453;-71
2022/01/27 09:22:11;;;;;;;34.83;19.20;;;;;;;;;;5113729;28;20942;-71
2022/01/27 09:24:41;;;;;;;27.90;17.90;;;;;;;;;;5113724;28;20943;-71
2022/01/27 09:27:08;;;;;;;27.77;17.73;;;;;;;;;;5113758;28;20477;-71
2022/01/27 09:29:37;;;;;;;30.33;18.80;;;;;;;;;;5113587;28;20445;-71
2022/01/27 09:32:05;;;;;;;26.00;15.93;;;;;;;;;;5113935;28;21009;-71
2022/01/27 09:34:32;;;;;;;26.60;16.03;;;;;;;;;;5109810;28;20477;-72
2022/01/27 09:37:02;;;;;;;30.97;16.07;;;;;;;;;;5112084;28;20478;-71
2022/01/27 09:39:29;;;;;;;35.10;18.00;;;;;;;;;;5112105;28;20465;-72
2022/01/27 09:41:57;;;;;;;35.00;19.73;;;;;;;;;;5111958;28;20441;-71
2022/01/27 09:44:28;;;;;;;29.87;18.17;;;;;;;;;;5111793;28;20453;-71
2022/01/27 09:46:58;;;;;;;30.13;16.57;;;;;;;;;;5111634;28;20492;-71
2022/01/27 09:49:33;;;;;;;25.73;18.53;;;;;;;;;;5112041;28;20464;-71
2022/01/27 09:52:01;;;;;;;22.67;14.20;;;;;;;;;;5111964;28;20487;-71
2022/01/27 09:54:28;;;;;;;25.40;15.63;;;;;;;;;;5111819;28;20834;-71
2022/01/27 09:56:56;;;;;;;24.13;16.90;;;;;;;;;;5111553;28;20473;-71
2022/01/27 09:59:24;;;;;;;22.27;15.97;;;;;;;;;;5111928;28;20961;-72
2022/01/27 10:01:55;;;;;;;21.80;16.03;;;;;;;;;;5111988;28;20449;-71
2022/01/27 10:04:26;;;;;;;25.53;16.93;;;;;;;;;;5113327;28;20795;-71
2022/01/27 10:06:57;;;;;;;24.63;15.30;;;;;;;;;;5116032;28;20481;-71
2022/01/27 10:09:27;;;;;;;25.13;16.33;;;;;;;;;;5116499;28;20462;-71
2022/01/27 10:11:55;;;;;;;25.27;17.17;;;;;;;;;;5115708;28;20983;-71
2022/01/27 10:14:26;;;;;;;25.73;16.07;;;;;;;;;;5115926;27;20954;-71
2022/01/27 10:16:55;;;;;;;18.80;14.00;;;;;;;;;;5115874;28;20474;-71
2022/01/27 10:19:25;;;;;;;20.03;13.33;;;;;;;;;;5115743;28;20449;-71
2022/01/27 10:21:59;;;;;;;20.33;12.80;;;;;;;;;;5115695;28;20466;-71
2022/01/27 10:24:28;;;;;;;23.33;14.20;;;;;;;;;;5115699;28;20449;-69
2022/01/27 10:27:17;;;;;;;20.37;12.90;;;;;;;;;;5115018;28;20507;-71
2022/01/27 10:30:01;;;;;;;19.00;12.03;;;;;;;;;;5116526;27;20476;-72
2022/01/27 10:32:37;;;;;;;13.90;10.30;;;;;;;;;;5116992;28;20512;-71
2022/01/27 10:35:07;;;;;;;16.60;10.20;;;;;;;;;;5116759;28;20946;-71
2022/01/27 10:37:49;;;;;;;13.30;11.40;;;;;;;;;;5116594;27;20450;-72
2022/01/27 10:40:21;;;;;;;12.13;8.83;;;;;;;;;;5116965;27;20453;-71
2022/01/27 10:42:58;;;;;;;11.87;9.03;;;;;;;;;;5116919;27;20442;-71
2022/01/27 10:45:25;;;;;;;11.97;9.63;;;;;;;;;;5116534;28;20461;-72
2022/01/27 10:47:54;;;;;;;16.30;9.50;;;;;;;;;;5116575;28;20961;-71
2022/01/27 10:50:23;;;;;;;17.57;11.13;;;;;;;;;;5116867;28;20453;-71
2022/01/27 10:52:57;;;;;;;11.70;8.27;;;;;;;;;;5116542;28;20823;-71
2022/01/27 10:55:25;;;;;;;12.97;8.57;;;;;;;;;;5116534;28;20477;-72
2022/01/27 10:57:52;;;;;;;6.97;5.97;;;;;;;;;;5116462;28;20454;-71
2022/01/27 11:00:20;;;;;;;11.63;6.90;;;;;;;;;;5116611;27;20460;-71
2022/01/27 11:02:51;;;;;;;7.83;5.67;;;;;;;;;;5116476;28;20452;-72
2022/01/27 11:05:19;;;;;;;7.80;5.83;;;;;;;;;;5115772;28;20457;-72
2022/01/27 11:07:47;;;;;;;7.97;5.90;;;;;;;;;;5116416;28;20449;-71
2022/01/27 11:10:16;;;;;;;8.23;4.83;;;;;;;;;;5116433;28;20828;-72
2022/01/27 11:12:44;;;;;;;10.20;6.33;;;;;;;;;;5116094;28;20484;-72
2022/01/27 11:15:11;;;;;;;7.90;5.40;;;;;;;;;;5115395;28;20453;-72
2022/01/27 11:17:40;;;;;;;6.97;4.60;;;;;;;;;;5116152;28;20457;-72
2022/01/27 11:20:23;;;;;;;6.70;5.60;;;;;;;;;;5116571;28;20437;-71
2022/01/27 11:23:24;;;;;;;8.23;6.10;;;;;;;;;;5115980;28;20445;-71
2022/01/27 11:25:54;;;;;;;11.10;6.20;;;;;;;;;;5115871;28;20473;-71
2022/01/27 11:28:22;;;;;;;8.10;6.30;;;;;;;;;;5116050;28;20449;-71
2022/01/27 11:30:54;;;;;;;11.00;6.43;;;;;;;;;;5116171;28;20457;-71
2022/01/27 11:33:30;;;;;;;10.50;7.43;;;;;;;;;;5115937;28;20901;-72
2022/01/27 11:36:08;;;;;;;8.73;7.10;;;;;;;;;;5115955;28;20461;-72
2022/01/27 11:38:36;;;;;;;9.73;6.90;;;;;;;;;;5115842;28;20461;-72
2022/01/27 11:41:04;;;;;;;11.03;7.43;;;;;;;;;;5115897;28;20453;-71
2022/01/27 11:43:33;;;;;;;7.60;6.60;;;;;;;;;;5115507;28;20445;-72
2022/01/27 11:46:13;;;;;;;14.33;7.40;;;;;;;;;;5115606;28;21043;-72
2022/01/27 11:48:40;;;;;;;7.23;6.50;;;;;;;;;;5115612;28;20446;-72
2022/01/27 11:51:12;;;;;;;12.27;7.90;;;;;;;;;;5115650;28;20453;-72
2022/01/27 11:53:42;;;;;;;10.97;7.33;;;;;;;;;;5098198;28;20902;-71
2022/01/27 11:56:15;;;;;;;15.60;11.50;;;;;;;;;;5095019;28;20524;-71
2022/01/27 11:58:44;;;;;;;16.63;11.67;;;;;;;;;;5094924;28;20956;-70
2022/01/27 12:01:14;;;;;;;17.80;12.50;;;;;;;;;;5095129;28;20512;-70
2022/01/27 12:03:41;;;;;;;23.17;14.83;;;;;;;;;;5095157;28;20454;-71
2022/01/27 12:06:18;;;;;;;22.70;12.70;;;;;;;;;;5094626;28;20967;-71
2022/01/27 12:08:47;;;;;;;20.27;14.53;;;;;;;;;;5109807;28;20449;-71
2022/01/27 12:11:33;;;;;;;20.40;13.97;;;;;;;;;;5113772;28;20446;-71
2022/01/27 12:14:03;;;;;;;19.23;14.17;;;;;;;;;;5106027;28;20494;-71
2022/01/27 12:16:55;;;;;;;21.67;14.17;;;;;;;;;;5094495;28;20684;-70
2022/01/27 12:19:22;;;;;;;17.83;12.63;;;;;;;;;;5094571;28;20511;-71
2022/01/27 12:21:59;;;;;;;20.17;14.17;;;;;;;;;;5094670;28;20802;-70
2022/01/27 12:24:29;;;;;;;21.70;13.50;;;;;;;;;;5094374;28;20450;-70
2022/01/27 12:26:57;;;;;;;23.53;15.67;;;;;;;;;;5093699;28;20483;-71
2022/01/27 12:29:29;;;;;;;18.30;12.17;;;;;;;;;;5094355;28;20457;-70
2022/01/27 12:31:58;;;;;;;20.03;12.43;;;;;;;;;;5094346;28;20447;-70
2022/01/27 12:34:26;;;;;;;17.47;11.97;;;;;;;;;;5094206;28;20482;-71
2022/01/27 12:36:58;;;;;;;21.17;13.10;;;;;;;;;;5094350;28;20474;-70
2022/01/27 12:39:25;;;;;;;17.83;11.70;;;;;;;;;;5094399;28;20447;-70
2022/01/27 12:41:55;;;;;;;19.40;12.47;;;;;;;;;;5094249;28;20458;-70
2022/01/27 12:44:22;;;;;;;17.20;10.80;;;;;;;;;;5094028;28;20451;-70
2022/01/27 12:47:02;;;;;;;21.20;11.10;;;;;;;;;;5093887;28;20535;-70
2022/01/27 12:49:35;;;;;;;25.03;15.13;;;;;;;;;;5093993;28;20454;-70
2022/01/27 12:52:06;;;;;;;22.10;13.37;;;;;;;;;;5094175;28;20457;-70
2022/01/27 12:54:33;;;;;;;16.93;11.53;;;;;;;;;;5093640;28;20559;-70
2022/01/27 12:57:02;;;;;;;17.30;10.83;;;;;;;;;;5093798;28;20483;-70
2022/01/27 12:59:32;;;;;;;18.83;10.97;;;;;;;;;;5093954;28;20461;-70
2022/01/27 13:02:00;;;;;;;21.43;9.47;;;;;;;;;;5093882;28;20468;-70
2022/01/27 13:04:27;;;;;;;12.47;8.40;;;;;;;;;;5093316;28;20850;-70
2022/01/27 13:06:55;;;;;;;11.13;8.43;;;;;;;;;;5093738;28;20827;-70
2022/01/27 13:09:22;;;;;;;13.43;8.47;;;;;;;;;;5093819;28;20887;-70
2022/01/27 13:11:51;;;;;;;13.20;8.50;;;;;;;;;;5093711;28;20453;-70
2022/01/27 13:14:20;;;;;;;18.70;8.70;;;;;;;;;;5093467;28;20493;-70
2022/01/27 13:16:51;;;;;;;12.70;8.77;;;;;;;;;;5093397;28;21058;-70
2022/01/27 13:19:25;;;;;;;16.87;8.93;;;;;;;;;;5093701;28;20967;-70
2022/01/27 13:22:01;;;;;;;13.30;8.90;;;;;;;;;;5093401;28;20455;-70
2022/01/27 13:24:31;;;;;;;13.00;8.17;;;;;;;;;;5093219;28;20478;-70
2022/01/27 13:27:05;;;;;;;11.60;7.77;;;;;;;;;;5093599;28;20477;-70
2022/01/27 13:29:40;;;;;;;14.00;8.97;;;;;;;;;;5093221;28;20458;-70
2022/01/27 13:32:08;;;;;;;14.77;9.07;;;;;;;;;;5093515;28;20462;-70
2022/01/27 13:34:35;;;;;;;10.80;7.90;;;;;;;;;;5093148;28;20486;-70
2022/01/27 13:37:04;;;;;;;11.13;7.93;;;;;;;;;;5093156;28;20482;-70
2022/01/27 13:41:16;;;;;;;15.40;8.70;;;;;;;;;;5093081;28;20940;-70
2022/01/27 13:42:24;;;;;;;13.97;8.20;;;;;;;;;;5092966;28;20446;-70
2022/01/27 13:44:54;;;;;;;15.60;8.30;;;;;;;;;;5093029;28;20447;-71
2022/01/27 13:47:28;;;;;;;13.93;8.50;;;;;;;;;;5093134;28;20482;-70
2022/01/27 13:50:05;;;;;;;19.57;10.40;;;;;;;;;;5093270;28;20983;-70
2022/01/27 13:52:40;;;;;;;11.10;7.40;;;;;;;;;;5093174;28;20453;-70
2022/01/27 13:55:08;;;;;;;37.23;33.03;;;;;;;;;;5092962;28;20494;-71
2022/01/27 13:57:36;;;;;;;15.93;9.00;;;;;;;;;;5093069;28;20496;-70
2022/01/27 14:00:11;;;;;;;16.40;9.00;;;;;;;;;;5093172;28;20490;-70
2022/01/27 14:02:40;;;;;;;20.07;10.20;;;;;;;;;;5092902;28;20458;-70
2022/01/27 14:05:12;;;;;;;17.17;10.33;;;;;;;;;;5092376;28;20936;-70
2022/01/27 14:07:40;;;;;;;15.30;10.53;;;;;;;;;;5092942;28;20454;-71
2022/01/27 14:10:09;;;;;;;13.40;9.40;;;;;;;;;;5092918;28;20451;-70
2022/01/27 14:12:46;;;;;;;14.70;9.20;;;;;;;;;;5092933;28;20462;-71
2022/01/27 14:15:28;;;;;;;18.93;10.67;;;;;;;;;;5092661;28;20482;-70
2022/01/27 14:17:59;;;;;;;18.67;10.37;;;;;;;;;;5092778;28;20458;-71
2022/01/27 14:20:26;;;;;;;18.73;10.13;;;;;;;;;;5093007;28;20878;-70
2022/01/27 14:23:03;;;;;;;24.30;11.10;;;;;;;;;;5092737;28;20936;-70
2022/01/27 14:25:36;;;;;;;18.63;10.80;;;;;;;;;;5092598;28;20466;-71
2022/01/27 14:28:10;;;;;;;17.70;11.30;;;;;;;;;;5092850;28;20447;-70
2022/01/27 14:30:39;;;;;;;17.27;9.80;;;;;;;;;;5092666;28;20815;-70
2022/01/27 14:33:06;;;;;;;17.07;10.30;;;;;;;;;;5092747;28;20451;-70
2022/01/27 14:35:33;;;;;;;17.97;11.33;;;;;;;;;;5092431;28;20462;-70
2022/01/27 14:38:01;;;;;;;21.07;11.17;;;;;;;;;;5092694;28;20442;-70
2022/01/27 14:40:28;;;;;;;19.80;11.10;;;;;;;;;;5092833;28;20955;-70
2022/01/27 14:42:59;;;;;;;23.20;15.30;;;;;;;;;;5092469;28;20454;-70
2022/01/27 14:45:26;;;;;;;21.60;10.93;;;;;;;;;;5092315;28;20470;-70
2022/01/27 14:48:00;;;;;;;19.80;11.40;;;;;;;;;;5092362;28;20451;-70
2022/01/27 14:50:28;;;;;;;18.13;10.30;;;;;;;;;;5093119;28;21092;-70
2022/01/27 14:52:56;;;;;;;17.13;10.80;;;;;;;;;;5096127;28;20453;-70
2022/01/27 14:55:24;;;;;;;13.07;9.13;;;;;;;;;;5095950;28;20482;-70